Heidelberg, Mississippi
Current Conditions -  °F | °C
As of 4:58 PM on Wednesday 26 Nov 2014 (Local Time) from KMEI Reporting Station
Clear Clear  
Wind Chill: 56°   Ceiling: Unl
Heat Index: 56°   Visibility: 10mi
Dew Point: 33°   Wind: 10mph
Humidity: 42%   Direction: 200°SSW
Pressure: 30.08"   Gusts: NA
Location:  31.89°N, 88.98°W
Report Text: KMEI 262258Z 20009KT 10SM CLR 13/01 A3008 RMK AO2 SLP184 T01330006
Loading
Personal Weather Stations






























Interactive Weather Map New forecast layout! Learn more

10-Day Weather Forecast

Advertisements
Track Severe Weather on mobile